sensor_id;sensor_type;location;lat;lon;timestamp;pressure;altitude;pressure_sealevel;temperature;humidity
18988;BME280;5494;51.796;10.952;2023-08-17T00:00:49;99336.69;;;20.70;100.00
18988;BME280;5494;51.796;10.952;2023-08-17T00:03:18;99334.44;;;20.66;100.00
18988;BME280;5494;51.796;10.952;2023-08-17T00:05:46;99330.66;;;20.59;100.00
18988;BME280;5494;51.796;10.952;2023-08-17T00:08:15;99323.41;;;20.61;100.00
18988;BME280;5494;51.796;10.952;2023-08-17T00:10:44;99320.03;;;20.49;100.00
18988;BME280;5494;51.796;10.952;2023-08-17T00:13:12;99316.19;;;20.53;100.00
18988;BME280;5494;51.796;10.952;2023-08-17T00:15:41;99307.75;;;20.38;100.00
18988;BME280;5494;51.796;10.952;2023-08-17T00:18:12;99303.69;;;20.34;100.00
18988;BME280;5494;51.796;10.952;2023-08-17T00:20:41;99295.06;;;20.32;100.00
18988;BME280;5494;51.796;10.952;2023-08-17T00:23:09;99293.28;;;20.33;100.00
18988;BME280;5494;51.796;10.952;2023-08-17T00:25:37;99296.03;;;20.31;100.00
18988;BME280;5494;51.796;10.952;2023-08-17T00:28:06;99294.88;;;20.24;100.00
18988;BME280;5494;51.796;10.952;2023-08-17T00:30:34;99296.38;;;20.27;100.00
18988;BME280;5494;51.796;10.952;2023-08-17T00:33:05;99292.47;;;20.21;100.00
18988;BME280;5494;51.796;10.952;2023-08-17T00:35:33;99299.03;;;20.27;100.00
18988;BME280;5494;51.796;10.952;2023-08-17T00:38:03;99293.38;;;20.31;100.00
18988;BME280;5494;51.796;10.952;2023-08-17T00:40:31;99305.50;;;20.34;100.00
18988;BME280;5494;51.796;10.952;2023-08-17T00:42:59;99307.88;;;20.37;100.00
18988;BME280;5494;51.796;10.952;2023-08-17T00:45:27;99304.59;;;20.44;100.00
18988;BME280;5494;51.796;10.952;2023-08-17T00:47:57;99306.28;;;20.46;100.00
18988;BME280;5494;51.796;10.952;2023-08-17T00:50:28;99303.22;;;20.50;100.00
18988;BME280;5494;51.796;10.952;2023-08-17T00:52:57;99302.69;;;20.56;100.00
18988;BME280;5494;51.796;10.952;2023-08-17T00:55:28;99312.75;;;20.72;100.00
18988;BME280;5494;51.796;10.952;2023-08-17T00:57:57;99319.72;;;20.73;100.00
18988;BME280;5494;51.796;10.952;2023-08-17T01:00:26;99334.44;;;20.66;100.00
18988;BME280;5494;51.796;10.952;2023-08-17T01:02:57;99351.66;;;20.60;100.00
18988;BME280;5494;51.796;10.952;2023-08-17T01:05:26;99362.53;;;20.67;100.00
18988;BME280;5494;51.796;10.952;2023-08-17T01:07:55;99372.66;;;20.62;100.00
18988;BME280;5494;51.796;10.952;2023-08-17T01:10:25;99379.34;;;20.66;100.00
18988;BME280;5494;51.796;10.952;2023-08-17T01:13:04;99357.44;;;20.54;100.00
18988;BME280;5494;51.796;10.952;2023-08-17T01:15:37;99361.13;;;20.21;100.00
18988;BME280;5494;51.796;10.952;2023-08-17T01:18:17;99344.44;;;20.00;100.00
18988;BME280;5494;51.796;10.952;2023-08-17T01:20:46;99337.66;;;19.65;100.00
18988;BME280;5494;51.796;10.952;2023-08-17T01:23:16;99347.66;;;19.51;100.00
18988;BME280;5494;51.796;10.952;2023-08-17T01:25:44;99335.56;;;19.48;100.00
18988;BME280;5494;51.796;10.952;2023-08-17T01:28:12;99338.19;;;19.37;100.00
18988;BME280;5494;51.796;10.952;2023-08-17T01:30:49;99333.69;;;19.28;100.00
18988;BME280;5494;51.796;10.952;2023-08-17T01:33:28;99327.44;;;19.29;100.00
18988;BME280;5494;51.796;10.952;2023-08-17T01:36:07;99320.88;;;19.12;100.00
18988;BME280;5494;51.796;10.952;2023-08-17T01:38:44;99318.25;;;19.12;100.00
18988;BME280;5494;51.796;10.952;2023-08-17T01:41:14;99318.47;;;19.20;100.00
18988;BME280;5494;51.796;10.952;2023-08-17T01:43:44;99311.53;;;19.19;100.00
18988;BME280;5494;51.796;10.952;2023-08-17T01:46:15;99307.94;;;19.20;100.00
18988;BME280;5494;51.796;10.952;2023-08-17T01:48:45;99304.34;;;19.10;100.00
18988;BME280;5494;51.796;10.952;2023-08-17T01:51:18;99302.81;;;19.08;100.00
18988;BME280;5494;51.796;10.952;2023-08-17T01:53:48;99299.56;;;19.04;100.00
18988;BME280;5494;51.796;10.952;2023-08-17T01:56:17;99309.28;;;19.04;100.00
18988;BME280;5494;51.796;10.952;2023-08-17T01:58:45;99299.13;;;18.99;100.00
18988;BME280;5494;51.796;10.952;2023-08-17T02:01:13;99296.59;;;18.98;100.00
18988;BME280;5494;51.796;10.952;2023-08-17T02:03:42;99290.25;;;19.00;100.00
18988;BME280;5494;51.796;10.952;2023-08-17T02:06:10;99296.34;;;19.12;100.00
18988;BME280;5494;51.796;10.952;2023-08-17T02:08:38;99293.00;;;18.99;100.00
18988;BME280;5494;51.796;10.952;2023-08-17T02:11:07;99298.88;;;18.91;100.00
18988;BME280;5494;51.796;10.952;2023-08-17T02:13:38;99300.09;;;18.87;100.00
18988;BME280;5494;51.796;10.952;2023-08-17T02:16:06;99294.34;;;18.82;100.00
18988;BME280;5494;51.796;10.952;2023-08-17T02:18:34;99286.59;;;18.80;100.00
18988;BME280;5494;51.796;10.952;2023-08-17T02:21:02;99281.16;;;18.82;100.00
18988;BME280;5494;51.796;10.952;2023-08-17T02:23:31;99273.25;;;18.82;100.00
18988;BME280;5494;51.796;10.952;2023-08-17T02:25:59;99274.59;;;18.76;100.00
18988;BME280;5494;51.796;10.952;2023-08-17T02:28:28;99270.91;;;18.79;100.00
18988;BME280;5494;51.796;10.952;2023-08-17T02:30:58;99256.28;;;18.75;100.00
18988;BME280;5494;51.796;10.952;2023-08-17T02:33:27;99239.16;;;18.69;100.00
18988;BME280;5494;51.796;10.952;2023-08-17T02:35:55;99236.16;;;18.85;100.00
18988;BME280;5494;51.796;10.952;2023-08-17T02:38:24;99249.91;;;18.88;100.00
18988;BME280;5494;51.796;10.952;2023-08-17T02:40:52;99245.56;;;18.99;100.00
18988;BME280;5494;51.796;10.952;2023-08-17T02:43:20;99264.13;;;19.08;100.00
18988;BME280;5494;51.796;10.952;2023-08-17T02:45:49;99271.53;;;19.03;100.00
18988;BME280;5494;51.796;10.952;2023-08-17T02:48:18;99274.91;;;19.05;100.00
18988;BME280;5494;51.796;10.952;2023-08-17T02:50:46;99262.28;;;19.20;100.00
18988;BME280;5494;51.796;10.952;2023-08-17T02:53:14;99262.00;;;19.23;100.00
18988;BME280;5494;51.796;10.952;2023-08-17T02:55:42;99256.19;;;19.19;100.00
18988;BME280;5494;51.796;10.952;2023-08-17T02:58:11;99249.34;;;19.17;100.00
18988;BME280;5494;51.796;10.952;2023-08-17T03:00:39;99245.91;;;19.05;100.00
18988;BME280;5494;51.796;10.952;2023-08-17T03:03:09;99255.41;;;18.97;100.00
18988;BME280;5494;51.796;10.952;2023-08-17T03:05:37;99255.16;;;19.00;100.00
18988;BME280;5494;51.796;10.952;2023-08-17T03:08:05;99252.97;;;19.05;100.00
18988;BME280;5494;51.796;10.952;2023-08-17T03:10:34;99254.16;;;19.12;100.00
18988;BME280;5494;51.796;10.952;2023-08-17T03:13:03;99240.94;;;18.91;100.00
18988;BME280;5494;51.796;10.952;2023-08-17T03:15:31;99247.06;;;18.69;100.00
18988;BME280;5494;51.796;10.952;2023-08-17T03:17:59;99238.94;;;18.72;100.00
18988;BME280;5494;51.796;10.952;2023-08-17T03:20:29;99239.63;;;18.74;100.00
18988;BME280;5494;51.796;10.952;2023-08-17T03:22:57;99248.38;;;18.86;100.00
18988;BME280;5494;51.796;10.952;2023-08-17T03:25:25;99250.03;;;18.87;100.00
18988;BME280;5494;51.796;10.952;2023-08-17T03:27:54;99241.91;;;18.79;100.00
18988;BME280;5494;51.796;10.952;2023-08-17T03:30:22;99241.81;;;18.69;100.00
18988;BME280;5494;51.796;10.952;2023-08-17T03:32:50;99247.56;;;18.63;100.00
18988;BME280;5494;51.796;10.952;2023-08-17T03:35:19;99246.50;;;18.66;100.00
18988;BME280;5494;51.796;10.952;2023-08-17T03:37:48;99242.41;;;18.73;100.00
18988;BME280;5494;51.796;10.952;2023-08-17T03:40:16;99233.19;;;18.67;100.00
18988;BME280;5494;51.796;10.952;2023-08-17T03:42:44;99231.72;;;18.74;100.00
18988;BME280;5494;51.796;10.952;2023-08-17T03:45:12;99221.13;;;18.65;100.00
18988;BME280;5494;51.796;10.952;2023-08-17T03:47:40;99228.41;;;18.61;100.00
18988;BME280;5494;51.796;10.952;2023-08-17T03:50:09;99225.50;;;18.75;100.00
18988;BME280;5494;51.796;10.952;2023-08-17T03:52:37;99226.81;;;18.81;100.00
18988;BME280;5494;51.796;10.952;2023-08-17T03:55:07;99216.66;;;18.76;100.00
18988;BME280;5494;51.796;10.952;2023-08-17T03:57:36;99220.13;;;18.77;100.00
18988;BME280;5494;51.796;10.952;2023-08-17T04:00:07;99221.47;;;18.71;100.00
18988;BME280;5494;51.796;10.952;2023-08-17T04:02:40;99227.19;;;18.76;100.00
18988;BME280;5494;51.796;10.952;2023-08-17T04:05:10;99224.16;;;18.81;100.00
18988;BME280;5494;51.796;10.952;2023-08-17T04:07:39;99228.28;;;18.74;100.00
18988;BME280;5494;51.796;10.952;2023-08-17T04:10:09;99235.69;;;18.69;100.00
18988;BME280;5494;51.796;10.952;2023-08-17T04:12:37;99233.78;;;18.71;100.00
18988;BME280;5494;51.796;10.952;2023-08-17T04:15:07;99224.44;;;18.78;100.00
18988;BME280;5494;51.796;10.952;2023-08-17T04:17:35;99226.94;;;18.79;100.00
18988;BME280;5494;51.796;10.952;2023-08-17T04:20:05;99236.28;;;18.83;100.00
18988;BME280;5494;51.796;10.952;2023-08-17T04:22:33;99236.38;;;18.82;100.00
18988;BME280;5494;51.796;10.952;2023-08-17T04:25:02;99236.59;;;18.90;100.00
18988;BME280;5494;51.796;10.952;2023-08-17T04:27:31;99248.56;;;19.05;100.00
18988;BME280;5494;51.796;10.952;2023-08-17T04:30:01;99248.94;;;18.89;100.00
18988;BME280;5494;51.796;10.952;2023-08-17T04:32:36;99243.94;;;18.86;100.00
18988;BME280;5494;51.796;10.952;2023-08-17T04:35:05;99245.34;;;18.91;100.00
18988;BME280;5494;51.796;10.952;2023-08-17T04:37:33;99244.00;;;18.96;100.00
18988;BME280;5494;51.796;10.952;2023-08-17T04:40:02;99241.03;;;19.01;100.00
18988;BME280;5494;51.796;10.952;2023-08-17T04:42:33;99247.50;;;18.97;100.00
18988;BME280;5494;51.796;10.952;2023-08-17T04:45:02;99242.22;;;18.97;100.00
18988;BME280;5494;51.796;10.952;2023-08-17T04:47:31;99242.00;;;19.00;100.00
18988;BME280;5494;51.796;10.952;2023-08-17T04:49:59;99247.00;;;19.03;100.00
18988;BME280;5494;51.796;10.952;2023-08-17T04:52:27;99239.56;;;19.08;100.00
18988;BME280;5494;51.796;10.952;2023-08-17T04:54:55;99230.81;;;19.07;100.00
18988;BME280;5494;51.796;10.952;2023-08-17T04:57:24;99229.81;;;19.19;100.00
18988;BME280;5494;51.796;10.952;2023-08-17T04:59:55;99231.81;;;19.27;100.00
18988;BME280;5494;51.796;10.952;2023-08-17T05:02:23;99237.81;;;19.29;100.00
18988;BME280;5494;51.796;10.952;2023-08-17T05:04:52;99241.03;;;19.33;100.00
18988;BME280;5494;51.796;10.952;2023-08-17T05:07:20;99246.91;;;19.25;100.00
18988;BME280;5494;51.796;10.952;2023-08-17T05:09:48;99245.00;;;19.27;100.00
18988;BME280;5494;51.796;10.952;2023-08-17T05:12:16;99236.81;;;19.30;100.00
18988;BME280;5494;51.796;10.952;2023-08-17T05:14:45;99242.50;;;19.25;100.00
18988;BME280;5494;51.796;10.952;2023-08-17T05:17:15;99238.50;;;19.31;100.00
18988;BME280;5494;51.796;10.952;2023-08-17T05:19:43;99246.81;;;19.26;100.00
18988;BME280;5494;51.796;10.952;2023-08-17T05:22:12;99245.88;;;19.16;100.00
18988;BME280;5494;51.796;10.952;2023-08-17T05:24:40;99238.81;;;19.17;100.00
18988;BME280;5494;51.796;10.952;2023-08-17T05:27:08;99237.59;;;19.21;100.00
18988;BME280;5494;51.796;10.952;2023-08-17T05:29:37;99254.13;;;19.23;100.00
18988;BME280;5494;51.796;10.952;2023-08-17T05:32:05;99255.34;;;19.19;100.00
18988;BME280;5494;51.796;10.952;2023-08-17T05:34:36;99253.94;;;19.15;100.00
18988;BME280;5494;51.796;10.952;2023-08-17T05:37:04;99252.81;;;19.17;100.00
18988;BME280;5494;51.796;10.952;2023-08-17T05:39:32;99250.19;;;19.17;100.00
18988;BME280;5494;51.796;10.952;2023-08-17T05:42:02;99257.13;;;19.18;100.00
18988;BME280;5494;51.796;10.952;2023-08-17T05:44:31;99254.13;;;19.23;100.00
18988;BME280;5494;51.796;10.952;2023-08-17T05:46:59;99246.72;;;19.17;100.00
18988;BME280;5494;51.796;10.952;2023-08-17T05:49:27;99259.44;;;19.12;100.00
18988;BME280;5494;51.796;10.952;2023-08-17T05:51:57;99254.50;;;19.18;100.00
18988;BME280;5494;51.796;10.952;2023-08-17T05:54:25;99261.84;;;19.15;100.00
18988;BME280;5494;51.796;10.952;2023-08-17T05:56:53;99259.94;;;19.06;100.00
18988;BME280;5494;51.796;10.952;2023-08-17T05:59:21;99255.34;;;19.19;100.00
18988;BME280;5494;51.796;10.952;2023-08-17T06:01:49;99253.41;;;19.21;100.00
18988;BME280;5494;51.796;10.952;2023-08-17T06:04:17;99253.66;;;19.18;100.00
18988;BME280;5494;51.796;10.952;2023-08-17T06:06:46;99260.72;;;19.28;100.00
18988;BME280;5494;51.796;10.952;2023-08-17T06:09:16;99255.50;;;19.38;100.00
18988;BME280;5494;51.796;10.952;2023-08-17T06:11:44;99250.81;;;19.42;100.00
18988;BME280;5494;51.796;10.952;2023-08-17T06:14:12;99254.25;;;19.53;100.00
18988;BME280;5494;51.796;10.952;2023-08-17T06:16:40;99254.19;;;19.64;100.00
18988;BME280;5494;51.796;10.952;2023-08-17T06:19:11;99255.50;;;19.70;100.00
18988;BME280;5494;51.796;10.952;2023-08-17T06:21:39;99245.13;;;19.78;100.00
18988;BME280;5494;51.796;10.952;2023-08-17T06:24:07;99253.22;;;19.86;100.00
18988;BME280;5494;51.796;10.952;2023-08-17T06:26:37;99258.50;;;20.07;100.00
18988;BME280;5494;51.796;10.952;2023-08-17T06:29:05;99252.91;;;20.00;100.00
18988;BME280;5494;51.796;10.952;2023-08-17T06:31:33;99250.69;;;20.05;100.00
18988;BME280;5494;51.796;10.952;2023-08-17T06:34:01;99256.56;;;20.09;100.00
18988;BME280;5494;51.796;10.952;2023-08-17T06:36:31;99262.41;;;20.13;100.00
18988;BME280;5494;51.796;10.952;2023-08-17T06:39:00;99264.38;;;19.90;100.00
18988;BME280;5494;51.796;10.952;2023-08-17T06:41:28;99263.53;;;19.69;100.00
18988;BME280;5494;51.796;10.952;2023-08-17T06:43:57;99268.53;;;19.72;100.00
18988;BME280;5494;51.796;10.952;2023-08-17T06:46:25;99267.03;;;19.90;100.00
18988;BME280;5494;51.796;10.952;2023-08-17T06:48:55;99265.13;;;20.01;100.00
18988;BME280;5494;51.796;10.952;2023-08-17T06:51:23;99262.69;;;20.10;100.00
18988;BME280;5494;51.796;10.952;2023-08-17T06:53:51;99265.25;;;20.00;100.00
18988;BME280;5494;51.796;10.952;2023-08-17T06:56:19;99270.81;;;19.97;100.00
18988;BME280;5494;51.796;10.952;2023-08-17T06:58:47;99272.09;;;20.02;100.00
18988;BME280;5494;51.796;10.952;2023-08-17T07:01:16;99272.63;;;19.96;100.00
18988;BME280;5494;51.796;10.952;2023-08-17T07:03:44;99276.53;;;20.02;100.00
18988;BME280;5494;51.796;10.952;2023-08-17T07:06:13;99269.19;;;19.85;100.00
18988;BME280;5494;51.796;10.952;2023-08-17T07:08:41;99269.25;;;19.74;100.00
18988;BME280;5494;51.796;10.952;2023-08-17T07:11:09;99267.38;;;19.64;100.00
18988;BME280;5494;51.796;10.952;2023-08-17T07:13:37;99265.75;;;19.63;100.00
18988;BME280;5494;51.796;10.952;2023-08-17T07:16:06;99267.34;;;19.76;100.00
18988;BME280;5494;51.796;10.952;2023-08-17T07:18:36;99272.81;;;20.04;100.00
18988;BME280;5494;51.796;10.952;2023-08-17T07:21:04;99267.03;;;20.20;100.00
18988;BME280;5494;51.796;10.952;2023-08-17T07:23:32;99271.47;;;20.20;100.00
18988;BME280;5494;51.796;10.952;2023-08-17T07:26:00;99269.69;;;20.20;100.00
18988;BME280;5494;51.796;10.952;2023-08-17T07:28:28;99269.81;;;20.39;100.00
18988;BME280;5494;51.796;10.952;2023-08-17T07:30:56;99277.53;;;20.31;100.00
18988;BME280;5494;51.796;10.952;2023-08-17T07:33:25;99275.69;;;20.01;100.00
18988;BME280;5494;51.796;10.952;2023-08-17T07:35:54;99277.75;;;20.19;100.00
18988;BME280;5494;51.796;10.952;2023-08-17T07:38:24;99281.91;;;19.91;100.00
18988;BME280;5494;51.796;10.952;2023-08-17T07:40:54;99290.25;;;19.75;100.00
18988;BME280;5494;51.796;10.952;2023-08-17T07:43:22;99284.78;;;19.67;100.00
18988;BME280;5494;51.796;10.952;2023-08-17T07:45:54;99288.19;;;19.79;100.00
18988;BME280;5494;51.796;10.952;2023-08-17T07:48:23;99281.31;;;19.87;100.00
18988;BME280;5494;51.796;10.952;2023-08-17T07:50:52;99286.97;;;20.03;100.00
18988;BME280;5494;51.796;10.952;2023-08-17T07:53:21;99292.75;;;20.18;100.00
18988;BME280;5494;51.796;10.952;2023-08-17T07:55:50;99276.81;;;20.29;100.00
18988;BME280;5494;51.796;10.952;2023-08-17T07:58:22;99276.84;;;20.60;100.00
18988;BME280;5494;51.796;10.952;2023-08-17T08:00:50;99281.41;;;20.88;100.00
18988;BME280;5494;51.796;10.952;2023-08-17T08:03:18;99285.56;;;20.91;100.00
18988;BME280;5494;51.796;10.952;2023-08-17T08:05:46;99295.56;;;20.87;100.00
18988;BME280;5494;51.796;10.952;2023-08-17T08:08:14;99293.91;;;20.86;100.00
18988;BME280;5494;51.796;10.952;2023-08-17T08:10:45;99294.59;;;20.88;100.00
18988;BME280;5494;51.796;10.952;2023-08-17T08:13:13;99295.72;;;20.95;100.00
18988;BME280;5494;51.796;10.952;2023-08-17T08:15:43;99290.19;;;21.08;100.00
18988;BME280;5494;51.796;10.952;2023-08-17T08:18:12;99299.56;;;21.21;100.00
18988;BME280;5494;51.796;10.952;2023-08-17T08:20:40;99301.19;;;21.13;100.00
18988;BME280;5494;51.796;10.952;2023-08-17T08:23:10;99296.47;;;21.16;100.00
18988;BME280;5494;51.796;10.952;2023-08-17T08:25:39;99295.25;;;21.30;100.00
18988;BME280;5494;51.796;10.952;2023-08-17T08:28:09;99291.56;;;21.02;100.00
18988;BME280;5494;51.796;10.952;2023-08-17T08:30:37;99289.25;;;21.18;100.00
18988;BME280;5494;51.796;10.952;2023-08-17T08:33:05;99295.25;;;21.30;100.00
18988;BME280;5494;51.796;10.952;2023-08-17T08:35:33;99294.53;;;21.18;100.00
18988;BME280;5494;51.796;10.952;2023-08-17T08:38:01;99287.25;;;21.01;100.00
18988;BME280;5494;51.796;10.952;2023-08-17T08:40:30;99292.06;;;21.27;100.00
18988;BME280;5494;51.796;10.952;2023-08-17T08:42:58;99285.94;;;21.36;100.00
18988;BME280;5494;51.796;10.952;2023-08-17T08:45:30;99294.84;;;21.44;100.00
18988;BME280;5494;51.796;10.952;2023-08-17T08:48:01;99288.72;;;21.25;100.00
18988;BME280;5494;51.796;10.952;2023-08-17T08:50:31;99290.31;;;21.06;100.00
18988;BME280;5494;51.796;10.952;2023-08-17T08:53:03;99290.50;;;21.14;100.00
18988;BME280;5494;51.796;10.952;2023-08-17T08:55:37;99286.91;;;21.35;100.00
18988;BME280;5494;51.796;10.952;2023-08-17T08:58:12;99291.66;;;21.41;100.00
18988;BME280;5494;51.796;10.952;2023-08-17T09:00:45;99288.03;;;21.42;100.00
18988;BME280;5494;51.796;10.952;2023-08-17T09:03:15;99285.81;;;21.76;100.00
18988;BME280;5494;51.796;10.952;2023-08-17T09:05:48;99280.00;;;22.28;100.00
18988;BME280;5494;51.796;10.952;2023-08-17T09:08:22;99286.50;;;23.08;100.00
18988;BME280;5494;51.796;10.952;2023-08-17T09:10:50;99281.03;;;23.80;100.00
18988;BME280;5494;51.796;10.952;2023-08-17T09:13:19;99281.03;;;23.80;100.00
18988;BME280;5494;51.796;10.952;2023-08-17T09:15:48;99281.19;;;23.79;100.00
18988;BME280;5494;51.796;10.952;2023-08-17T09:18:17;99282.63;;;23.91;100.00
18988;BME280;5494;51.796;10.952;2023-08-17T09:20:47;99277.69;;;23.96;100.00
18988;BME280;5494;51.796;10.952;2023-08-17T09:23:17;99281.31;;;24.13;100.00
18988;BME280;5494;51.796;10.952;2023-08-17T09:25:47;99283.41;;;23.83;100.00
18988;BME280;5494;51.796;10.952;2023-08-17T09:28:17;99281.31;;;23.69;100.00
18988;BME280;5494;51.796;10.952;2023-08-17T09:30:52;99279.69;;;22.96;100.00
18988;BME280;5494;51.796;10.952;2023-08-17T09:33:22;99277.13;;;22.86;100.00
18988;BME280;5494;51.796;10.952;2023-08-17T09:35:52;99272.72;;;22.77;100.00
18988;BME280;5494;51.796;10.952;2023-08-17T09:38:26;99279.63;;;22.88;100.00
18988;BME280;5494;51.796;10.952;2023-08-17T09:40:54;99280.50;;;23.06;100.00
18988;BME280;5494;51.796;10.952;2023-08-17T09:43:24;99285.19;;;22.94;100.00
18988;BME280;5494;51.796;10.952;2023-08-17T09:45:57;99284.31;;;22.66;100.00
18988;BME280;5494;51.796;10.952;2023-08-17T09:48:26;99272.94;;;22.84;100.00
18988;BME280;5494;51.796;10.952;2023-08-17T09:50:59;99280.38;;;22.80;100.00
18988;BME280;5494;51.796;10.952;2023-08-17T09:53:28;99277.00;;;22.88;100.00
18988;BME280;5494;51.796;10.952;2023-08-17T09:55:59;99274.97;;;23.17;100.00
18988;BME280;5494;51.796;10.952;2023-08-17T09:58:27;99270.69;;;23.51;100.00
18988;BME280;5494;51.796;10.952;2023-08-17T10:01:03;99270.97;;;23.84;100.00
18988;BME280;5494;51.796;10.952;2023-08-17T10:03:33;99272.09;;;24.07;100.00
18988;BME280;5494;51.796;10.952;2023-08-17T10:06:05;99279.84;;;24.18;100.00
18988;BME280;5494;51.796;10.952;2023-08-17T10:08:42;99274.38;;;23.59;100.00
18988;BME280;5494;51.796;10.952;2023-08-17T10:11:15;99270.59;;;23.43;100.00
18988;BME280;5494;51.796;10.952;2023-08-17T10:13:51;99265.94;;;23.45;100.00
18988;BME280;5494;51.796;10.952;2023-08-17T10:16:25;99265.13;;;23.27;100.00
18988;BME280;5494;51.796;10.952;2023-08-17T10:19:07;99264.78;;;23.58;100.00
18988;BME280;5494;51.796;10.952;2023-08-17T10:21:45;99264.75;;;23.40;100.00
18988;BME280;5494;51.796;10.952;2023-08-17T10:24:15;99258.59;;;23.92;100.00
18988;BME280;5494;51.796;10.952;2023-08-17T10:26:44;99267.63;;;24.25;100.00
18988;BME280;5494;51.796;10.952;2023-08-17T10:29:15;99262.84;;;24.37;100.00
18988;BME280;5494;51.796;10.952;2023-08-17T10:31:45;99259.41;;;24.45;100.00
18988;BME280;5494;51.796;10.952;2023-08-17T10:34:14;99260.22;;;24.79;100.00
18988;BME280;5494;51.796;10.952;2023-08-17T10:36:44;99265.34;;;24.72;100.00
18988;BME280;5494;51.796;10.952;2023-08-17T10:39:24;99258.47;;;24.54;100.00
18988;BME280;5494;51.796;10.952;2023-08-17T10:41:57;99270.88;;;24.45;100.00
18988;BME280;5494;51.796;10.952;2023-08-17T10:44:42;99261.88;;;24.38;100.00
18988;BME280;5494;51.796;10.952;2023-08-17T10:47:26;99267.06;;;23.96;100.00
18988;BME280;5494;51.796;10.952;2023-08-17T10:50:05;99266.84;;;23.89;100.00
18988;BME280;5494;51.796;10.952;2023-08-17T10:52:36;99272.09;;;23.46;100.00
18988;BME280;5494;51.796;10.952;2023-08-17T10:55:07;99275.13;;;23.33;100.00
18988;BME280;5494;51.796;10.952;2023-08-17T10:57:36;99281.09;;;23.00;100.00
18988;BME280;5494;51.796;10.952;2023-08-17T11:00:16;99274.09;;;22.81;100.00
18988;BME280;5494;51.796;10.952;2023-08-17T11:02:57;99269.88;;;23.06;100.00
18988;BME280;5494;51.796;10.952;2023-08-17T11:05:37;99266.56;;;22.76;100.00
18988;BME280;5494;51.796;10.952;2023-08-17T11:08:07;99262.03;;;22.59;100.00
18988;BME280;5494;51.796;10.952;2023-08-17T11:10:36;99259.88;;;22.35;100.00
18988;BME280;5494;51.796;10.952;2023-08-17T11:13:05;99261.06;;;22.14;100.00
18988;BME280;5494;51.796;10.952;2023-08-17T11:15:39;99263.06;;;22.02;100.00
18988;BME280;5494;51.796;10.952;2023-08-17T11:18:12;99263.50;;;21.97;100.00
18988;BME280;5494;51.796;10.952;2023-08-17T11:20:41;99256.63;;;22.14;100.00
18988;BME280;5494;51.796;10.952;2023-08-17T11:23:10;99260.69;;;22.09;100.00
18988;BME280;5494;51.796;10.952;2023-08-17T11:25:39;99266.38;;;22.14;100.00
18988;BME280;5494;51.796;10.952;2023-08-17T11:28:08;99260.03;;;21.97;100.00
18988;BME280;5494;51.796;10.952;2023-08-17T11:30:37;99261.94;;;21.95;100.00
18988;BME280;5494;51.796;10.952;2023-08-17T11:33:07;99260.84;;;21.97;100.00
18988;BME280;5494;51.796;10.952;2023-08-17T11:35:37;99257.75;;;22.12;100.00
18988;BME280;5494;51.796;10.952;2023-08-17T11:38:07;99251.78;;;22.47;100.00
18988;BME280;5494;51.796;10.952;2023-08-17T11:40:36;99253.00;;;22.52;100.00
18988;BME280;5494;51.796;10.952;2023-08-17T11:43:04;99254.84;;;22.69;100.00
18988;BME280;5494;51.796;10.952;2023-08-17T11:45:32;99255.94;;;23.04;100.00
18988;BME280;5494;51.796;10.952;2023-08-17T11:48:02;99262.53;;;23.17;100.00
18988;BME280;5494;51.796;10.952;2023-08-17T11:50:31;99260.34;;;23.13;100.00
18988;BME280;5494;51.796;10.952;2023-08-17T11:53:01;99262.84;;;23.14;100.00
18988;BME280;5494;51.796;10.952;2023-08-17T11:55:31;99264.81;;;23.12;100.00
18988;BME280;5494;51.796;10.952;2023-08-17T11:58:01;99254.81;;;23.42;100.00
18988;BME280;5494;51.796;10.952;2023-08-17T12:00:36;99258.03;;;23.63;100.00
18988;BME280;5494;51.796;10.952;2023-08-17T12:03:07;99250.06;;;23.89;100.00
18988;BME280;5494;51.796;10.952;2023-08-17T12:05:35;99255.53;;;24.31;100.00
18988;BME280;5494;51.796;10.952;2023-08-17T12:08:08;99254.91;;;24.79;100.00
18988;BME280;5494;51.796;10.952;2023-08-17T12:10:37;99251.19;;;25.14;100.00
18988;BME280;5494;51.796;10.952;2023-08-17T12:13:06;99248.72;;;25.29;100.00
18988;BME280;5494;51.796;10.952;2023-08-17T12:15:38;99252.72;;;25.33;100.00
18988;BME280;5494;51.796;10.952;2023-08-17T12:18:07;99252.09;;;24.89;100.00
18988;BME280;5494;51.796;10.952;2023-08-17T12:20:35;99248.00;;;24.94;100.00
18988;BME280;5494;51.796;10.952;2023-08-17T12:23:05;99248.66;;;25.04;100.00
18988;BME280;5494;51.796;10.952;2023-08-17T12:25:33;99245.66;;;24.99;100.00
18988;BME280;5494;51.796;10.952;2023-08-17T12:28:02;99250.50;;;24.62;100.00
18988;BME280;5494;51.796;10.952;2023-08-17T12:30:31;99243.66;;;24.93;100.00
18988;BME280;5494;51.796;10.952;2023-08-17T12:33:03;99242.22;;;25.23;100.00
18988;BME280;5494;51.796;10.952;2023-08-17T12:35:32;99239.41;;;25.33;100.00
18988;BME280;5494;51.796;10.952;2023-08-17T12:38:00;99237.41;;;25.35;100.00
18988;BME280;5494;51.796;10.952;2023-08-17T12:40:29;99241.69;;;25.03;100.00
18988;BME280;5494;51.796;10.952;2023-08-17T12:42:58;99233.25;;;25.32;100.00
18988;BME280;5494;51.796;10.952;2023-08-17T12:45:26;99232.41;;;25.32;100.00
18988;BME280;5494;51.796;10.952;2023-08-17T12:47:54;99226.78;;;25.51;100.00
18988;BME280;5494;51.796;10.952;2023-08-17T12:50:23;99228.63;;;25.67;100.00
18988;BME280;5494;51.796;10.952;2023-08-17T12:52:51;99230.09;;;25.37;100.00
18988;BME280;5494;51.796;10.952;2023-08-17T12:55:19;99227.09;;;25.16;100.00
18988;BME280;5494;51.796;10.952;2023-08-17T12:57:48;99219.25;;;25.14;100.00
18988;BME280;5494;51.796;10.952;2023-08-17T13:00:17;99219.47;;;25.77;100.00
18988;BME280;5494;51.796;10.952;2023-08-17T13:02:45;99216.59;;;25.38;100.00